createdAt,value
2018-04-17T00:00:33.860Z,0.00
2018-04-17T00:01:33.775Z,0.00
2018-04-17T00:02:33.707Z,0.00
2018-04-17T00:03:33.620Z,0.00
2018-04-17T00:04:33.554Z,0.00
2018-04-17T00:05:33.475Z,0.00
2018-04-17T00:06:33.406Z,0.00
2018-04-17T00:07:33.326Z,0.00
2018-04-17T00:08:33.249Z,0.00
2018-04-17T00:09:33.170Z,0.00
2018-04-17T00:10:33.096Z,0.00
2018-04-17T00:11:33.010Z,0.00
2018-04-17T00:12:32.940Z,0.00
2018-04-17T00:13:32.863Z,0.00
2018-04-17T00:14:32.790Z,0.00
2018-04-17T00:15:32.705Z,0.00
2018-04-17T00:16:32.639Z,0.00
2018-04-17T00:17:32.555Z,0.00
2018-04-17T00:18:32.484Z,0.00
2018-04-17T00:19:32.397Z,0.00
2018-04-17T00:20:32.329Z,0.00
2018-04-17T00:21:32.247Z,0.00
2018-04-17T00:22:32.181Z,0.00
2018-04-17T00:23:32.093Z,0.00
2018-04-17T00:24:32.025Z,0.00
2018-04-17T00:25:31.940Z,0.00
2018-04-17T00:26:31.872Z,0.00
2018-04-17T00:27:31.788Z,0.00
2018-04-17T00:28:31.717Z,0.00
2018-04-17T00:29:31.635Z,0.00
2018-04-17T00:30:31.572Z,0.00
2018-04-17T00:31:31.481Z,0.00
2018-04-17T00:32:31.414Z,0.00
2018-04-17T00:33:31.333Z,0.00
2018-04-17T00:34:31.265Z,0.00
2018-04-17T00:35:31.176Z,0.00
2018-04-17T00:36:31.106Z,0.00
2018-04-17T00:37:31.023Z,0.00
2018-04-17T00:38:30.955Z,0.00
2018-04-17T00:39:30.870Z,0.00
2018-04-17T00:40:31.800Z,0.00
2018-04-17T00:41:30.715Z,0.00
2018-04-17T00:42:30.649Z,0.00
2018-04-17T00:43:30.571Z,0.00
2018-04-17T00:44:30.498Z,0.00
2018-04-17T00:45:30.411Z,0.00
2018-04-17T00:46:30.344Z,0.00
2018-04-17T00:47:30.257Z,0.00
2018-04-17T00:48:30.190Z,0.00
2018-04-17T00:49:30.109Z,0.00
2018-04-17T00:50:30.037Z,0.00
2018-04-17T00:51:29.952Z,0.00
2018-04-17T00:52:29.887Z,0.00
2018-04-17T00:53:29.801Z,0.00
2018-04-17T00:54:29.733Z,0.00
2018-04-17T00:55:29.646Z,0.00
2018-04-17T00:56:29.577Z,0.00
2018-04-17T00:57:29.499Z,0.00
2018-04-17T00:58:29.424Z,0.00
2018-04-17T00:59:29.340Z,0.00
2018-04-17T01:00:29.273Z,0.00
2018-04-17T01:01:29.189Z,0.00
2018-04-17T01:02:29.119Z,0.00
2018-04-17T01:03:29.033Z,0.00
2018-04-17T01:04:28.966Z,0.00
2018-04-17T01:05:28.880Z,0.00
2018-04-17T01:06:28.816Z,0.00
2018-04-17T01:07:28.730Z,0.00
2018-04-17T01:08:28.658Z,0.00
2018-04-17T01:09:28.577Z,0.00
2018-04-17T01:10:28.505Z,0.00
2018-04-17T01:11:28.426Z,0.00
2018-04-17T01:12:28.351Z,0.00
2018-04-17T01:13:28.268Z,0.00
2018-04-17T01:14:28.201Z,0.00
2018-04-17T01:15:28.115Z,0.00
2018-04-17T01:16:28.049Z,0.00
2018-04-17T01:17:27.961Z,0.00
2018-04-17T01:18:27.895Z,0.00
2018-04-17T01:19:27.813Z,0.00
2018-04-17T01:20:27.739Z,0.00
2018-04-17T01:21:27.656Z,0.00
2018-04-17T01:22:27.586Z,0.00
2018-04-17T01:23:27.502Z,0.00
2018-04-17T01:24:27.431Z,0.00
2018-04-17T01:25:27.350Z,0.00
2018-04-17T01:26:27.278Z,0.00
2018-04-17T01:27:27.191Z,0.00
2018-04-17T01:28:27.124Z,0.00
2018-04-17T01:29:27.047Z,0.00
2018-04-17T01:30:26.970Z,0.00
2018-04-17T01:31:26.884Z,0.00
2018-04-17T01:32:26.817Z,0.00
2018-04-17T01:33:26.736Z,0.00
2018-04-17T01:34:26.655Z,0.00
2018-04-17T01:35:26.586Z,0.00
2018-04-17T01:36:26.500Z,0.00
2018-04-17T01:37:26.432Z,0.00
2018-04-17T01:38:26.348Z,0.00
2018-04-17T01:39:26.281Z,0.00
2018-04-17T01:40:26.194Z,0.00
2018-04-17T01:41:26.125Z,0.00
2018-04-17T01:42:26.045Z,0.00
2018-04-17T01:43:25.977Z,0.00
2018-04-17T01:44:25.896Z,0.00
2018-04-17T01:45:25.819Z,0.00
2018-04-17T01:46:25.732Z,0.00
2018-04-17T01:47:25.667Z,0.00
2018-04-17T01:48:25.579Z,0.00
2018-04-17T01:49:25.535Z,0.00
2018-04-17T01:50:25.425Z,0.00
2018-04-17T01:51:25.355Z,0.00
2018-04-17T01:52:25.270Z,0.00
2018-04-17T01:53:25.202Z,0.00
2018-04-17T01:54:25.118Z,0.00
2018-04-17T01:55:25.052Z,0.00
2018-04-17T01:56:24.964Z,0.00
2018-04-17T01:57:24.895Z,0.00
2018-04-17T01:58:24.821Z,0.00
2018-04-17T01:59:24.742Z,0.00
2018-04-17T02:00:24.665Z,0.00
2018-04-17T02:01:24.592Z,0.00
2018-04-17T02:02:24.502Z,0.00
2018-04-17T02:03:24.437Z,0.00
2018-04-17T02:04:24.349Z,0.00
2018-04-17T02:05:24.284Z,0.00
2018-04-17T02:06:24.196Z,0.00
2018-04-17T02:07:24.128Z,0.00
2018-04-17T02:08:24.043Z,0.00
2018-04-17T02:09:23.969Z,0.00
2018-04-17T02:10:23.886Z,0.00
2018-04-17T02:11:23.814Z,0.00
2018-04-17T02:12:23.735Z,0.00
2018-04-17T02:13:23.664Z,0.00
2018-04-17T02:14:23.632Z,0.00
2018-04-17T02:15:23.506Z,0.00
2018-04-17T02:16:23.423Z,0.00
2018-04-17T02:17:23.355Z,0.00
2018-04-17T02:18:23.273Z,0.00
2018-04-17T02:19:23.201Z,0.00
2018-04-17T02:20:23.127Z,0.00
2018-04-17T02:21:23.045Z,0.00
2018-04-17T02:22:22.963Z,0.00
2018-04-17T02:23:22.893Z,0.00
2018-04-17T02:24:22.808Z,0.00
2018-04-17T02:25:22.751Z,0.00
2018-04-17T02:26:22.654Z,0.00
2018-04-17T02:27:22.586Z,0.00
2018-04-17T02:28:22.498Z,0.00
2018-04-17T02:29:22.432Z,0.00
2018-04-17T02:30:22.345Z,0.00
2018-04-17T02:31:22.281Z,0.00
2018-04-17T02:32:22.192Z,0.00
2018-04-17T02:33:22.120Z,0.00
2018-04-17T02:34:22.040Z,0.00
2018-04-17T02:35:21.968Z,0.00
2018-04-17T02:36:21.880Z,0.00
2018-04-17T02:37:21.812Z,0.00
2018-04-17T02:38:21.727Z,0.00
2018-04-17T02:39:21.657Z,0.00
2018-04-17T02:40:21.572Z,0.00
2018-04-17T02:41:21.502Z,0.00
2018-04-17T02:42:21.418Z,0.00
2018-04-17T02:43:21.349Z,0.00
2018-04-17T02:44:21.263Z,0.00
2018-04-17T02:45:21.194Z,0.00
2018-04-17T02:46:21.114Z,0.00
2018-04-17T02:47:21.039Z,0.00
2018-04-17T02:48:20.954Z,0.00
2018-04-17T02:49:20.890Z,0.00
2018-04-17T02:50:20.798Z,0.00
2018-04-17T02:51:20.731Z,0.00
2018-04-17T02:52:20.643Z,0.00
2018-04-17T02:53:20.574Z,0.00
2018-04-17T02:54:20.489Z,0.00
2018-04-17T02:55:20.417Z,0.00
2018-04-17T02:56:20.333Z,0.00
2018-04-17T02:57:20.266Z,0.00
2018-04-17T02:58:20.180Z,0.00
2018-04-17T02:59:20.108Z,0.00
2018-04-17T03:00:20.021Z,0.00
2018-04-17T03:01:19.953Z,0.00
2018-04-17T03:02:19.870Z,0.00
2018-04-17T03:03:19.801Z,0.00
2018-04-17T03:04:19.730Z,0.00
2018-04-17T03:05:19.663Z,0.00
2018-04-17T03:06:19.561Z,0.00
2018-04-17T03:07:19.490Z,0.00
2018-04-17T03:08:19.402Z,0.00
2018-04-17T03:09:19.336Z,0.00
2018-04-17T03:10:19.248Z,0.00
2018-04-17T03:11:19.181Z,0.00
2018-04-17T03:12:19.094Z,0.00
2018-04-17T03:13:19.022Z,0.00
2018-04-17T03:14:18.939Z,0.00
2018-04-17T03:15:18.869Z,0.00
2018-04-17T03:16:18.785Z,0.00
2018-04-17T03:17:18.716Z,0.00
2018-04-17T03:18:18.628Z,0.00
2018-04-17T03:19:18.564Z,0.00
2018-04-17T03:20:18.478Z,0.00
2018-04-17T03:21:18.402Z,0.00
2018-04-17T03:22:18.319Z,0.00
2018-04-17T03:23:18.249Z,0.00
2018-04-17T03:24:18.166Z,0.00
2018-04-17T03:25:18.097Z,0.00
2018-04-17T03:26:18.013Z,0.00
2018-04-17T03:27:17.940Z,0.00
2018-04-17T03:28:17.856Z,0.00
2018-04-17T03:29:17.786Z,0.00
2018-04-17T03:30:17.702Z,0.00
2018-04-17T03:31:17.630Z,0.00
2018-04-17T03:32:17.546Z,0.00
2018-04-17T03:33:17.475Z,0.00
2018-04-17T03:34:17.391Z,0.00
2018-04-17T03:35:17.320Z,0.00
2018-04-17T03:36:17.235Z,0.00
2018-04-17T03:37:17.164Z,0.00
2018-04-17T03:38:17.079Z,0.00
2018-04-17T03:39:17.011Z,0.00
2018-04-17T03:40:16.924Z,0.00
2018-04-17T03:41:16.853Z,0.00
2018-04-17T03:42:16.770Z,0.00
2018-04-17T03:43:16.700Z,0.00
2018-04-17T03:44:16.617Z,0.00
2018-04-17T03:45:16.547Z,0.00
2018-04-17T03:46:16.461Z,0.00
2018-04-17T03:47:16.390Z,0.00
2018-04-17T03:48:16.321Z,0.00
2018-04-17T03:49:16.242Z,0.00
2018-04-17T03:50:16.165Z,0.00
2018-04-17T03:51:16.072Z,0.00
2018-04-17T03:52:17.106Z,0.00
2018-04-17T03:53:15.962Z,0.00
2018-04-17T03:54:15.888Z,0.00
2018-04-17T03:55:15.765Z,0.00
2018-04-17T03:56:16.721Z,0.00
2018-04-17T03:57:15.607Z,0.00
2018-04-17T03:58:15.612Z,0.00
2018-04-17T03:59:15.452Z,0.00
2018-04-17T04:00:15.416Z,0.00
2018-04-17T04:01:15.300Z,0.00
2018-04-17T04:02:15.329Z,0.00
2018-04-17T04:03:15.144Z,4.00
2018-04-17T04:04:15.136Z,0.00
2018-04-17T04:05:14.987Z,0.00
2018-04-17T04:06:14.945Z,4.00
2018-04-17T04:07:14.831Z,4.00
2018-04-17T04:08:14.851Z,0.00
2018-04-17T04:09:14.676Z,4.00
2018-04-17T04:10:14.660Z,0.00
2018-04-17T04:11:14.528Z,4.00
2018-04-17T04:12:14.471Z,4.00
2018-04-17T04:13:14.373Z,4.00
2018-04-17T04:14:14.381Z,8.00
2018-04-17T04:15:14.210Z,8.00
2018-04-17T04:16:14.208Z,8.00
2018-04-17T04:17:14.055Z,8.00
2018-04-17T04:18:13.991Z,8.00
2018-04-17T04:19:13.904Z,12.00
2018-04-17T04:20:13.907Z,12.00
2018-04-17T04:21:13.749Z,12.00
2018-04-17T04:22:13.737Z,12.00
2018-04-17T04:23:13.591Z,16.00
2018-04-17T04:24:13.625Z,16.00
2018-04-17T04:25:13.437Z,16.00
2018-04-17T04:26:13.439Z,20.00
2018-04-17T04:27:13.280Z,20.00
2018-04-17T04:28:13.242Z,24.00
2018-04-17T04:29:13.126Z,24.00
2018-04-17T04:30:13.154Z,24.00
2018-04-17T04:31:12.970Z,28.00
2018-04-17T04:32:12.963Z,36.00
2018-04-17T04:33:12.813Z,36.00
2018-04-17T04:34:12.772Z,40.00
2018-04-17T04:35:12.657Z,36.00
2018-04-17T04:36:12.589Z,36.00
2018-04-17T04:37:12.504Z,40.00
2018-04-17T04:38:12.486Z,44.00
2018-04-17T04:39:12.346Z,44.00
2018-04-17T04:40:12.275Z,48.00
2018-04-17T04:41:12.193Z,48.00
2018-04-17T04:42:12.124Z,52.00
2018-04-17T04:43:12.051Z,56.00
2018-04-17T04:44:12.016Z,56.00
2018-04-17T04:45:11.881Z,56.00
2018-04-17T04:46:11.824Z,60.00
2018-04-17T04:47:11.725Z,64.00
2018-04-17T04:48:11.735Z,68.00
2018-04-17T04:49:11.572Z,72.00
2018-04-17T04:50:11.544Z,76.00
2018-04-17T04:51:11.414Z,76.00
2018-04-17T04:52:11.395Z,80.00
2018-04-17T04:53:11.259Z,84.00
2018-04-17T04:54:11.262Z,84.00
2018-04-17T04:55:11.113Z,88.00
2018-04-17T04:56:11.070Z,92.00
2018-04-17T04:57:10.949Z,96.00
2018-04-17T04:58:10.984Z,96.00
2018-04-17T04:59:10.794Z,104.00
2018-04-17T05:00:10.791Z,108.00
2018-04-17T05:01:10.640Z,112.00
2018-04-17T05:02:10.598Z,116.00
2018-04-17T05:03:10.481Z,120.00
2018-04-17T05:04:10.513Z,120.00
2018-04-17T05:05:10.329Z,124.00
2018-04-17T05:06:10.317Z,124.00
2018-04-17T05:07:10.171Z,128.00
2018-04-17T05:08:10.126Z,132.00
2018-04-17T05:09:10.018Z,136.00
2018-04-17T05:10:10.042Z,140.00
2018-04-17T05:11:09.860Z,144.00
2018-04-17T05:12:09.848Z,148.00
2018-04-17T05:13:09.707Z,152.00
2018-04-17T05:14:09.683Z,152.00
2018-04-17T05:15:09.549Z,156.00
2018-04-17T05:16:09.566Z,160.00
2018-04-17T05:17:09.392Z,160.00
2018-04-17T05:18:09.372Z,164.00
2018-04-17T05:19:09.251Z,168.00
2018-04-17T05:20:09.186Z,172.00
2018-04-17T05:21:09.084Z,172.00
2018-04-17T05:22:09.092Z,176.00
2018-04-17T05:23:08.927Z,180.00
2018-04-17T05:24:08.906Z,180.00
2018-04-17T05:25:08.770Z,184.00
2018-04-17T05:26:08.709Z,184.00
2018-04-17T05:27:08.614Z,180.00
2018-04-17T05:28:08.547Z,180.00
2018-04-17T05:29:08.461Z,204.00
2018-04-17T05:30:08.429Z,204.00
2018-04-17T05:31:08.304Z,208.00
2018-04-17T05:32:08.339Z,212.00
2018-04-17T05:33:08.154Z,212.00
2018-04-17T05:34:08.149Z,216.00
2018-04-17T05:35:07.993Z,220.00
2018-04-17T05:36:07.956Z,224.00
2018-04-17T05:37:07.836Z,224.00
2018-04-17T05:38:07.867Z,232.00
2018-04-17T05:39:07.682Z,232.00
2018-04-17T05:40:07.694Z,236.00
2018-04-17T05:41:07.529Z,236.00
2018-04-17T05:42:07.486Z,244.00
2018-04-17T05:43:07.369Z,244.00
2018-04-17T05:44:07.393Z,248.00
2018-04-17T05:45:07.216Z,252.00
2018-04-17T05:46:07.204Z,256.00
2018-04-17T05:47:07.065Z,260.00
2018-04-17T05:48:07.013Z,260.00
2018-04-17T05:49:06.903Z,264.00
2018-04-17T05:50:06.924Z,268.00
2018-04-17T05:51:06.740Z,268.00
2018-04-17T05:52:06.733Z,272.00
2018-04-17T05:53:06.585Z,276.00
2018-04-17T05:54:06.537Z,280.00
2018-04-17T05:55:06.432Z,284.00
2018-04-17T05:56:06.448Z,284.00
2018-04-17T05:57:06.276Z,292.00
2018-04-17T05:58:06.256Z,292.00
2018-04-17T05:59:06.119Z,296.00
2018-04-17T06:00:06.064Z,300.00
2018-04-17T06:01:05.966Z,304.00
2018-04-17T06:02:05.981Z,304.00
2018-04-17T06:03:05.807Z,312.00
2018-04-17T06:04:05.784Z,312.00
2018-04-17T06:05:05.652Z,320.00
2018-04-17T06:06:05.695Z,324.00
2018-04-17T06:07:05.497Z,324.00
2018-04-17T06:08:05.514Z,328.00
2018-04-17T06:09:05.349Z,332.00
2018-04-17T06:10:05.314Z,332.00
2018-04-17T06:11:05.190Z,340.00
2018-04-17T06:12:05.223Z,340.00
2018-04-17T06:13:05.035Z,344.00
2018-04-17T06:14:05.036Z,352.00
2018-04-17T06:15:04.884Z,356.00
2018-04-17T06:16:04.841Z,364.00
2018-04-17T06:17:04.726Z,368.00
2018-04-17T06:18:04.747Z,372.00
2018-04-17T06:19:04.571Z,376.00
2018-04-17T06:20:04.556Z,380.00
2018-04-17T06:21:04.418Z,384.00
2018-04-17T06:22:04.370Z,384.00
2018-04-17T06:23:04.261Z,392.00
2018-04-17T06:24:04.285Z,396.00
2018-04-17T06:25:04.124Z,396.00
2018-04-17T06:26:04.120Z,400.00
2018-04-17T06:27:03.952Z,404.00
2018-04-17T06:28:03.895Z,408.00
2018-04-17T06:29:03.799Z,412.00
2018-04-17T06:30:03.808Z,416.00
2018-04-17T06:31:03.646Z,424.00
2018-04-17T06:32:03.616Z,428.00
2018-04-17T06:33:03.488Z,436.00
2018-04-17T06:34:03.530Z,436.00
2018-04-17T06:35:03.360Z,444.00
2018-04-17T06:36:03.331Z,448.00
2018-04-17T06:37:03.185Z,452.00
2018-04-17T06:38:03.143Z,456.00
2018-04-17T06:39:03.031Z,464.00
2018-04-17T06:40:03.056Z,468.00
2018-04-17T06:41:02.877Z,468.00
2018-04-17T06:42:02.893Z,472.00
2018-04-17T06:43:02.723Z,480.00
2018-04-17T06:44:02.655Z,488.00
2018-04-17T06:45:02.582Z,492.00
2018-04-17T06:46:02.591Z,500.00
2018-04-17T06:47:02.415Z,504.00
2018-04-17T06:48:02.389Z,508.00
2018-04-17T06:49:02.263Z,512.00
2018-04-17T06:50:02.303Z,524.00
2018-04-17T06:51:02.116Z,524.00
2018-04-17T06:52:02.124Z,532.00
2018-04-17T06:53:01.957Z,536.00
2018-04-17T06:54:01.918Z,544.00
2018-04-17T06:55:01.802Z,548.00
2018-04-17T06:56:01.828Z,556.00
2018-04-17T06:57:01.653Z,564.00
2018-04-17T06:58:01.693Z,568.00
2018-04-17T06:59:01.511Z,576.00
2018-04-17T07:00:01.448Z,584.00
2018-04-17T07:01:01.341Z,596.00
2018-04-17T07:02:01.356Z,604.00
2018-04-17T07:03:01.191Z,616.00
2018-04-17T07:04:01.162Z,628.00
2018-04-17T07:05:01.040Z,640.00
2018-04-17T07:06:01.075Z,656.00
2018-04-17T07:07:00.889Z,672.00
2018-04-17T07:08:00.883Z,692.00
2018-04-17T07:09:00.735Z,712.00
2018-04-17T07:10:00.691Z,732.00
2018-04-17T07:11:00.580Z,748.00
2018-04-17T07:12:00.601Z,768.00
2018-04-17T07:13:00.436Z,788.00
2018-04-17T07:14:00.411Z,812.00
2018-04-17T07:15:00.281Z,844.00
2018-04-17T07:16:00.325Z,876.00
2018-04-17T07:17:00.150Z,908.00
2018-04-17T07:18:00.130Z,936.00
2018-04-17T07:18:59.980Z,960.00
2018-04-17T07:19:59.940Z,984.00
2018-04-17T07:20:59.829Z,1016.00
2018-04-17T07:21:59.844Z,1048.00
2018-04-17T07:22:59.675Z,1084.00
2018-04-17T07:23:59.661Z,1120.00
2018-04-17T07:24:59.525Z,1160.00
2018-04-17T07:25:59.465Z,1192.00
2018-04-17T07:26:59.379Z,1228.00
2018-04-17T07:27:59.377Z,1268.00
2018-04-17T07:28:59.222Z,1304.00
2018-04-17T07:29:59.186Z,1344.00
2018-04-17T07:30:59.071Z,1388.00
2018-04-17T07:31:59.099Z,1432.00
2018-04-17T07:32:58.922Z,1480.00
2018-04-17T07:33:58.907Z,1536.00
2018-04-17T07:34:58.774Z,1592.00
2018-04-17T07:35:58.713Z,1652.00
2018-04-17T07:36:58.625Z,1708.00
2018-04-17T07:37:58.623Z,1756.00
2018-04-17T07:38:58.472Z,1808.00
2018-04-17T07:39:58.434Z,1852.00
2018-04-17T07:40:58.324Z,1900.00
2018-04-17T07:41:58.343Z,1936.00
2018-04-17T07:42:58.176Z,1976.00
2018-04-17T07:43:58.151Z,2012.00
2018-04-17T07:44:58.027Z,2040.00
2018-04-17T07:45:58.061Z,2072.00
2018-04-17T07:46:57.879Z,2100.00
2018-04-17T07:47:57.868Z,2140.00
2018-04-17T07:48:57.731Z,2164.00
2018-04-17T07:49:57.680Z,2188.00
2018-04-17T07:50:57.586Z,2204.00
2018-04-17T07:51:57.588Z,2236.00
2018-04-17T07:52:57.434Z,2268.00
2018-04-17T07:53:57.398Z,2284.00
2018-04-17T07:54:57.288Z,2300.00
2018-04-17T07:55:57.315Z,2324.00
2018-04-17T07:56:57.148Z,2340.00
2018-04-17T07:57:57.117Z,2360.00
2018-04-17T07:58:56.992Z,2384.00
2018-04-17T07:59:57.034Z,2404.00
2018-04-17T08:00:56.847Z,2432.00
2018-04-17T08:01:56.839Z,2456.00
2018-04-17T08:02:56.702Z,2468.00
2018-04-17T08:03:56.648Z,2488.00
2018-04-17T08:04:56.554Z,2508.00
2018-04-17T08:05:56.562Z,2532.00
2018-04-17T08:06:56.406Z,2552.00
2018-04-17T08:07:56.367Z,2564.00
2018-04-17T08:08:56.263Z,2580.00
2018-04-17T08:09:56.278Z,2596.00
2018-04-17T08:10:56.118Z,2612.00
2018-04-17T08:11:56.137Z,2632.00
2018-04-17T08:12:55.975Z,2644.00
2018-04-17T08:13:55.996Z,2660.00
2018-04-17T08:14:55.830Z,2672.00
2018-04-17T08:15:55.804Z,2692.00
2018-04-17T08:16:55.685Z,2700.00
2018-04-17T08:17:55.714Z,2708.00
2018-04-17T08:18:55.542Z,2728.00
2018-04-17T08:19:55.522Z,2724.00
2018-04-17T08:20:55.396Z,2732.00
2018-04-17T08:21:55.433Z,2736.00
2018-04-17T08:22:55.252Z,2748.00
2018-04-17T08:23:55.241Z,2748.00
2018-04-17T08:24:55.107Z,2760.00
2018-04-17T08:25:55.153Z,2764.00
2018-04-17T08:26:54.963Z,2776.00
2018-04-17T08:27:54.980Z,2784.00
2018-04-17T08:28:54.822Z,2800.00
2018-04-17T08:29:54.772Z,2808.00
2018-04-17T08:30:54.683Z,2816.00
2018-04-17T08:31:54.680Z,2828.00
2018-04-17T08:32:54.539Z,2840.00
2018-04-17T08:33:54.490Z,2852.00
2018-04-17T08:34:54.397Z,2856.00
2018-04-17T08:35:54.401Z,2872.00
2018-04-17T08:36:54.293Z,2876.00
2018-04-17T08:37:54.207Z,2888.00
2018-04-17T08:38:54.116Z,2896.00
2018-04-17T08:39:54.119Z,2904.00
2018-04-17T08:40:53.972Z,2908.00
2018-04-17T08:41:53.928Z,2916.00
2018-04-17T08:42:53.833Z,2920.00
2018-04-17T08:43:53.836Z,2932.00
2018-04-17T08:44:53.690Z,2936.00
2018-04-17T08:45:53.644Z,2944.00
2018-04-17T08:46:53.550Z,2944.00
2018-04-17T08:47:53.560Z,2936.00
2018-04-17T08:48:53.420Z,2932.00
2018-04-17T08:49:53.367Z,2936.00
2018-04-17T08:50:53.268Z,2944.00
2018-04-17T08:51:53.278Z,2952.00
2018-04-17T08:52:53.129Z,2948.00
2018-04-17T08:53:53.084Z,2940.00
2018-04-17T08:54:52.991Z,2912.00
2018-04-17T08:55:52.998Z,2892.00
2018-04-17T08:56:52.849Z,2884.00
2018-04-17T08:57:52.802Z,2896.00
2018-04-17T08:58:52.712Z,2908.00
2018-04-17T08:59:52.715Z,2908.00
2018-04-17T09:00:52.577Z,2924.00
2018-04-17T09:01:52.526Z,2920.00
2018-04-17T09:02:52.432Z,2908.00
2018-04-17T09:03:52.436Z,2912.00
2018-04-17T09:04:52.295Z,2924.00
2018-04-17T09:05:52.246Z,2956.00
2018-04-17T09:06:52.157Z,2936.00
2018-04-17T09:07:52.154Z,2928.00
2018-04-17T09:08:52.017Z,2916.00
2018-04-17T09:09:52.068Z,2928.00
2018-04-17T09:10:51.876Z,2916.00
2018-04-17T09:11:51.946Z,2900.00
2018-04-17T09:12:51.741Z,2892.00
2018-04-17T09:13:51.787Z,2896.00
2018-04-17T09:14:51.604Z,2896.00
2018-04-17T09:15:51.598Z,2904.00
2018-04-17T09:16:51.468Z,2876.00
2018-04-17T09:17:51.508Z,2840.00
2018-04-17T09:18:51.329Z,2832.00
2018-04-17T09:19:51.317Z,2848.00
2018-04-17T09:20:51.190Z,2856.00
2018-04-17T09:21:51.232Z,2852.00
2018-04-17T09:22:51.056Z,2860.00
2018-04-17T09:23:52.998Z,2872.00
2018-04-17T09:24:50.913Z,2888.00
2018-04-17T09:25:51.971Z,2892.00
2018-04-17T09:26:50.782Z,2904.00
2018-04-17T09:27:50.754Z,2912.00
2018-04-17T09:28:50.645Z,2908.00
2018-04-17T09:29:50.664Z,2908.00
2018-04-17T09:30:50.513Z,2880.00
2018-04-17T09:31:50.475Z,2876.00
2018-04-17T09:32:50.375Z,2872.00
2018-04-17T09:33:50.388Z,2860.00
2018-04-17T09:34:50.244Z,2848.00
2018-04-17T09:35:50.192Z,2848.00
2018-04-17T09:36:50.108Z,2852.00
2018-04-17T09:37:50.104Z,2856.00
2018-04-17T09:38:49.974Z,2856.00
2018-04-17T09:39:50.013Z,2848.00
2018-04-17T09:40:49.830Z,2836.00
2018-04-17T09:41:49.777Z,2816.00
2018-04-17T09:42:49.695Z,2800.00
2018-04-17T09:43:49.731Z,2808.00
2018-04-17T09:44:49.562Z,2792.00
2018-04-17T09:45:49.542Z,2792.00
2018-04-17T09:46:49.424Z,2800.00
2018-04-17T09:47:49.452Z,2804.00
2018-04-17T09:48:49.290Z,2808.00
2018-04-17T09:49:49.264Z,2812.00
2018-04-17T09:50:49.155Z,2820.00
2018-04-17T09:51:49.174Z,2832.00
2018-04-17T09:52:49.023Z,2836.00
2018-04-17T09:53:48.983Z,2816.00
2018-04-17T09:54:48.888Z,2800.00
2018-04-17T09:55:48.893Z,2792.00
2018-04-17T09:56:48.755Z,2768.00
2018-04-17T09:57:48.701Z,2740.00
2018-04-17T09:58:48.616Z,2724.00
2018-04-17T09:59:48.607Z,2708.00
2018-04-17T10:00:48.483Z,2724.00
2018-04-17T10:01:48.522Z,2748.00
2018-04-17T10:02:48.350Z,2760.00
2018-04-17T10:03:48.328Z,2756.00
2018-04-17T10:04:48.216Z,2776.00
2018-04-17T10:05:48.242Z,2784.00
2018-04-17T10:06:48.081Z,2792.00
2018-04-17T10:07:48.051Z,2804.00
2018-04-17T10:08:47.989Z,2800.00
2018-04-17T10:09:47.963Z,2784.00
2018-04-17T10:10:47.820Z,2772.00
2018-04-17T10:11:47.768Z,2780.00
2018-04-17T10:12:47.683Z,2788.00
2018-04-17T10:13:47.679Z,2816.00
2018-04-17T10:14:47.547Z,2836.00
2018-04-17T10:15:47.590Z,2836.00
2018-04-17T10:16:47.415Z,2852.00
2018-04-17T10:17:47.398Z,2872.00
2018-04-17T10:18:47.282Z,2900.00
2018-04-17T10:19:47.310Z,2920.00
2018-04-17T10:20:47.150Z,2944.00
2018-04-17T10:21:47.120Z,2932.00
2018-04-17T10:22:47.018Z,2852.00
2018-04-17T10:23:47.028Z,2848.00
2018-04-17T10:24:46.889Z,2860.00
2018-04-17T10:25:46.838Z,2880.00
2018-04-17T10:26:46.757Z,2856.00
2018-04-17T10:27:46.749Z,2868.00
2018-04-17T10:28:46.624Z,2856.00
2018-04-17T10:29:46.664Z,2824.00
2018-04-17T10:30:46.498Z,2828.00
2018-04-17T10:31:46.468Z,2728.00
2018-04-17T10:32:46.361Z,2692.00
2018-04-17T10:33:46.378Z,2696.00
2018-04-17T10:34:46.228Z,2720.00
2018-04-17T10:35:46.188Z,2708.00
2018-04-17T10:36:46.098Z,2684.00
2018-04-17T10:37:46.100Z,2640.00
2018-04-17T10:38:45.964Z,2636.00
2018-04-17T10:39:46.047Z,2612.00
2018-04-17T10:40:45.834Z,2636.00
2018-04-17T10:41:45.822Z,2600.00
2018-04-17T10:42:45.702Z,2028.00
2018-04-17T10:43:45.729Z,1568.00
2018-04-17T10:44:45.572Z,2420.00
2018-04-17T10:45:45.514Z,1552.00
2018-04-17T10:46:45.439Z,2316.00
2018-04-17T10:47:45.448Z,2284.00
2018-04-17T10:48:45.310Z,1068.00
2018-04-17T10:49:45.362Z,924.00
2018-04-17T10:50:45.177Z,2224.00
2018-04-17T10:51:45.168Z,2228.00
2018-04-17T10:52:45.051Z,2488.00
2018-04-17T10:53:45.105Z,2528.00
2018-04-17T10:54:44.918Z,2556.00
2018-04-17T10:55:44.886Z,2568.00
2018-04-17T10:56:44.792Z,2556.00
2018-04-17T10:57:44.798Z,2524.00
2018-04-17T10:58:44.656Z,2500.00
2018-04-17T10:59:44.712Z,2548.00
2018-04-17T11:00:44.526Z,680.00
2018-04-17T11:01:44.517Z,664.00
2018-04-17T11:02:44.400Z,608.00
2018-04-17T11:03:44.430Z,612.00
2018-04-17T11:04:44.276Z,1008.00
2018-04-17T11:05:44.236Z,2208.00
2018-04-17T11:06:44.134Z,2512.00
2018-04-17T11:07:44.146Z,812.00
2018-04-17T11:08:44.006Z,656.00
2018-04-17T11:09:43.952Z,632.00
2018-04-17T11:10:43.875Z,616.00
2018-04-17T11:11:43.872Z,628.00
2018-04-17T11:12:43.743Z,624.00
2018-04-17T11:13:43.778Z,624.00
2018-04-17T11:14:43.609Z,640.00
2018-04-17T11:15:43.588Z,676.00
2018-04-17T11:16:43.478Z,1564.00
2018-04-17T11:17:43.502Z,2436.00
2018-04-17T11:18:43.345Z,2384.00
2018-04-17T11:19:43.308Z,724.00
2018-04-17T11:20:43.211Z,2076.00
2018-04-17T11:21:43.216Z,2336.00
2018-04-17T11:22:43.079Z,2360.00
2018-04-17T11:23:43.128Z,2348.00
2018-04-17T11:24:42.949Z,2348.00
2018-04-17T11:25:42.892Z,2320.00
2018-04-17T11:26:42.815Z,2312.00
2018-04-17T11:27:42.778Z,2296.00
2018-04-17T11:28:42.686Z,2288.00
2018-04-17T11:29:42.688Z,2300.00
2018-04-17T11:30:42.553Z,2292.00
2018-04-17T11:31:42.565Z,2276.00
2018-04-17T11:32:42.424Z,2240.00
2018-04-17T11:33:42.379Z,2200.00
2018-04-17T11:34:42.333Z,2184.00
2018-04-17T11:35:42.287Z,1800.00
2018-04-17T11:36:42.159Z,784.00
2018-04-17T11:37:42.195Z,676.00
2018-04-17T11:38:42.039Z,868.00
2018-04-17T11:39:42.007Z,2208.00
2018-04-17T11:40:41.893Z,2224.00
2018-04-17T11:41:41.916Z,2252.00
2018-04-17T11:42:41.767Z,2240.00
2018-04-17T11:43:41.725Z,2220.00
2018-04-17T11:44:41.633Z,2200.00
2018-04-17T11:45:41.638Z,2196.00
2018-04-17T11:46:41.502Z,2192.00
2018-04-17T11:47:41.548Z,2192.00
2018-04-17T11:48:41.402Z,2184.00
2018-04-17T11:49:41.355Z,2168.00
2018-04-17T11:50:41.242Z,2156.00
2018-04-17T11:51:41.268Z,2156.00
2018-04-17T11:52:41.110Z,2156.00
2018-04-17T11:53:41.075Z,2168.00
2018-04-17T11:54:40.978Z,2168.00
2018-04-17T11:55:40.984Z,2164.00
2018-04-17T11:56:40.848Z,2164.00
2018-04-17T11:57:40.900Z,2176.00
2018-04-17T11:58:40.718Z,2176.00
2018-04-17T11:59:40.714Z,2172.00
2018-04-17T12:00:40.588Z,2176.00
2018-04-17T12:01:40.617Z,2176.00
2018-04-17T12:02:40.457Z,2180.00
2018-04-17T12:03:40.426Z,2176.00
2018-04-17T12:04:40.327Z,2168.00
2018-04-17T12:05:40.334Z,2164.00
2018-04-17T12:06:40.197Z,2148.00
2018-04-17T12:07:40.246Z,2152.00
2018-04-17T12:08:40.066Z,2160.00
2018-04-17T12:09:40.059Z,2176.00
2018-04-17T12:10:39.943Z,2184.00
2018-04-17T12:11:39.965Z,2204.00
2018-04-17T12:12:39.810Z,2216.00
2018-04-17T12:13:39.778Z,2212.00
2018-04-17T12:14:39.762Z,2200.00
2018-04-17T12:15:39.687Z,2180.00
2018-04-17T12:16:39.555Z,2172.00
2018-04-17T12:17:39.596Z,2172.00
2018-04-17T12:18:39.421Z,2192.00
2018-04-17T12:19:39.406Z,2216.00
2018-04-17T12:20:39.290Z,2236.00
2018-04-17T12:21:39.316Z,2268.00
2018-04-17T12:22:39.160Z,2280.00
2018-04-17T12:23:39.125Z,2276.00
2018-04-17T12:24:39.031Z,2284.00
2018-04-17T12:25:39.033Z,2284.00
2018-04-17T12:26:38.896Z,2292.00
2018-04-17T12:27:38.952Z,2288.00
2018-04-17T12:28:38.772Z,2276.00
2018-04-17T12:29:38.759Z,688.00
2018-04-17T12:30:38.646Z,656.00
2018-04-17T12:31:38.665Z,628.00
2018-04-17T12:32:38.516Z,600.00
2018-04-17T12:33:38.473Z,596.00
2018-04-17T12:34:38.436Z,592.00
2018-04-17T12:35:38.391Z,604.00